createdAt,value
2019-04-05T00:01:29.716Z,13.19
2019-04-05T00:04:00.196Z,13.17
2019-04-05T00:06:34.274Z,13.13
2019-04-05T00:09:06.742Z,13.08
2019-04-05T00:11:37.312Z,13.09
2019-04-05T00:14:09.547Z,13.09
2019-04-05T00:16:41.401Z,13.09
2019-04-05T00:19:12.040Z,13.11
2019-04-05T00:21:44.310Z,13.15
2019-04-05T00:24:14.731Z,13.14
2019-04-05T00:26:50.782Z,13.13
2019-04-05T00:29:21.335Z,13.12
2019-04-05T00:32:00.633Z,13.10
2019-04-05T00:34:31.063Z,13.08
2019-04-05T00:37:07.100Z,13.07
2019-04-05T00:39:37.725Z,13.14
2019-04-05T00:42:08.547Z,13.22
2019-04-05T00:44:38.965Z,13.23
2019-04-05T00:47:10.130Z,13.27
2019-04-05T00:49:40.803Z,13.29
2019-04-05T00:52:11.309Z,13.32
2019-04-05T00:54:41.784Z,13.40
2019-04-05T00:57:16.567Z,13.35
2019-04-05T00:59:48.220Z,13.30
2019-04-05T01:02:23.048Z,13.28
2019-04-05T01:04:53.856Z,13.32
2019-04-05T01:07:24.823Z,13.27
2019-04-05T01:09:55.342Z,13.22
2019-04-05T01:12:32.085Z,13.25
2019-04-05T01:15:40.860Z,13.25
2019-04-05T01:18:03.873Z,13.26
2019-04-05T01:20:42.551Z,13.26
2019-04-05T01:23:17.891Z,13.23
2019-04-05T01:26:04.205Z,13.27
2019-04-05T01:28:35.600Z,13.24
2019-04-05T01:31:07.123Z,13.21
2019-04-05T01:33:37.778Z,13.13
2019-04-05T01:36:08.246Z,13.11
2019-04-05T01:38:40.075Z,13.15
2019-04-05T01:41:10.869Z,13.18
2019-04-05T01:43:41.377Z,13.19
2019-04-05T01:46:15.769Z,13.22
2019-04-05T01:48:50.800Z,13.22
2019-04-05T01:51:25.351Z,13.16
2019-04-05T01:53:55.981Z,13.19
2019-04-05T01:56:26.466Z,13.20
2019-04-05T01:58:56.892Z,13.23
2019-04-05T02:01:27.876Z,13.24
2019-04-05T02:03:58.276Z,13.22
2019-04-05T02:06:30.407Z,13.17
2019-04-05T02:09:00.850Z,13.21
2019-04-05T02:11:31.727Z,13.20
2019-04-05T02:14:04.494Z,13.24
2019-04-05T02:16:34.996Z,13.26
2019-04-05T02:19:11.421Z,13.31
2019-04-05T02:21:50.545Z,13.37
2019-04-05T02:24:21.343Z,13.43
2019-04-05T02:26:51.927Z,13.38
2019-04-05T02:29:26.755Z,13.39
2019-04-05T02:31:58.623Z,13.43
2019-04-05T02:34:29.050Z,13.50
2019-04-05T02:37:03.802Z,13.53
2019-04-05T02:39:34.295Z,13.50
2019-04-05T02:42:05.668Z,13.47
2019-04-05T02:44:39.566Z,13.38
2019-04-05T02:47:13.224Z,13.40
2019-04-05T02:49:46.563Z,13.41
2019-04-05T02:52:21.703Z,13.41
2019-04-05T02:54:55.375Z,13.47
2019-04-05T02:57:27.736Z,13.50
2019-04-05T02:59:59.017Z,13.44
2019-04-05T03:02:30.227Z,13.37
2019-04-05T03:05:00.773Z,13.37
2019-04-05T03:07:31.626Z,13.35
2019-04-05T03:10:02.924Z,13.40
2019-04-05T03:12:36.950Z,13.42
2019-04-05T03:15:08.456Z,13.42
2019-04-05T03:17:39.874Z,13.39
2019-04-05T03:20:10.327Z,13.33
2019-04-05T03:22:40.997Z,13.33
2019-04-05T03:25:11.571Z,13.38
2019-04-05T03:27:41.976Z,13.38
2019-04-05T03:30:12.730Z,13.33
2019-04-05T03:32:45.894Z,13.25
2019-04-05T03:35:18.695Z,13.12
2019-04-05T03:37:53.058Z,13.06
2019-04-05T03:40:24.587Z,13.11
2019-04-05T03:43:04.692Z,13.14
2019-04-05T03:45:40.821Z,13.15
2019-04-05T03:48:11.554Z,13.20
2019-04-05T03:50:45.379Z,13.26
2019-04-05T03:53:16.446Z,13.31
2019-04-05T03:55:50.231Z,13.32
2019-04-05T03:58:21.837Z,13.30
2019-04-05T04:00:52.453Z,13.30
2019-04-05T04:03:24.702Z,13.29
2019-04-05T04:05:55.506Z,13.28
2019-04-05T04:08:26.228Z,13.31
2019-04-05T04:10:57.133Z,13.26
2019-04-05T04:13:30.797Z,13.22
2019-04-05T04:16:03.994Z,13.22
2019-04-05T04:18:38.057Z,13.20
2019-04-05T04:22:09.965Z,13.13
2019-04-05T04:24:42.827Z,12.98
2019-04-05T04:27:19.149Z,13.01
2019-04-05T04:29:49.766Z,13.03
2019-04-05T04:32:21.095Z,13.00
2019-04-05T04:35:03.601Z,12.99
2019-04-05T04:37:35.212Z,12.99
2019-04-05T04:40:13.616Z,12.95
2019-04-05T04:42:44.505Z,12.95
2019-04-05T04:45:15.489Z,12.94
2019-04-05T04:47:46.670Z,12.93
2019-04-05T04:50:19.309Z,12.92
2019-04-05T04:52:50.790Z,12.88
2019-04-05T04:55:21.952Z,12.92
2019-04-05T04:57:52.393Z,12.94
2019-04-05T05:00:23.059Z,13.01
2019-04-05T05:02:53.660Z,13.04
2019-04-05T05:05:24.162Z,13.00
2019-04-05T05:07:54.547Z,13.01
2019-04-05T05:10:25.198Z,13.00
2019-04-05T05:12:56.397Z,13.03
2019-04-05T05:15:27.371Z,13.07
2019-04-05T05:17:59.116Z,13.07
2019-04-05T05:20:30.067Z,13.06
2019-04-05T05:23:01.077Z,13.06
2019-04-05T05:25:31.991Z,13.09
2019-04-05T05:28:03.035Z,13.09
2019-04-05T05:30:34.093Z,13.09
2019-04-05T05:33:07.261Z,13.10
2019-04-05T05:35:37.612Z,13.13
2019-04-05T05:38:08.101Z,13.16
2019-04-05T05:40:38.983Z,13.13
2019-04-05T05:43:09.408Z,13.09
2019-04-05T05:45:40.054Z,13.11
2019-04-05T05:48:10.878Z,13.11
2019-04-05T05:50:41.649Z,13.03
2019-04-05T05:53:13.113Z,13.07
2019-04-05T05:55:43.906Z,13.08
2019-04-05T05:58:14.699Z,13.01
2019-04-05T06:00:45.424Z,12.99
2019-04-05T06:03:16.732Z,12.99
2019-04-05T06:05:47.235Z,12.98
2019-04-05T06:08:17.558Z,13.02
2019-04-05T06:10:47.982Z,13.06
2019-04-05T06:13:18.394Z,13.01
2019-04-05T06:15:48.744Z,12.99
2019-04-05T06:18:19.467Z,12.95
2019-04-05T06:20:49.854Z,12.95
2019-04-05T06:23:32.722Z,12.96
2019-04-05T06:25:52.346Z,12.99
2019-04-05T06:28:23.143Z,12.95
2019-04-05T06:30:53.446Z,12.94
2019-04-05T06:33:31.437Z,12.94
2019-04-05T06:35:55.992Z,12.94
2019-04-05T06:38:26.396Z,12.85
2019-04-05T06:40:56.818Z,12.83
2019-04-05T06:43:27.867Z,12.80
2019-04-05T06:45:58.292Z,12.75
2019-04-05T06:48:30.263Z,12.61
2019-04-05T06:51:00.687Z,12.48
2019-04-05T06:53:31.721Z,12.48
2019-04-05T06:56:02.529Z,12.43
2019-04-05T06:58:32.980Z,12.43
2019-04-05T07:01:03.423Z,12.46
2019-04-05T07:03:35.538Z,12.53
2019-04-05T07:06:06.035Z,12.62
2019-04-05T07:08:36.533Z,12.64
2019-04-05T07:11:07.026Z,12.64
2019-04-05T07:13:41.449Z,12.66
2019-04-05T07:16:12.085Z,12.60
2019-04-05T07:18:42.725Z,12.62
2019-04-05T07:21:13.261Z,12.67
2019-04-05T07:23:43.988Z,12.71
2019-04-05T07:26:14.499Z,12.81
2019-04-05T07:28:45.178Z,12.82
2019-04-05T07:31:16.114Z,12.85
2019-04-05T07:33:47.048Z,12.90
2019-04-05T07:36:17.871Z,12.89
2019-04-05T07:38:49.465Z,12.89
2019-04-05T07:41:21.950Z,12.98
2019-04-05T07:43:54.991Z,13.15
2019-04-05T07:46:25.388Z,13.24
2019-04-05T07:48:56.564Z,13.30
2019-04-05T07:51:26.931Z,13.43
2019-04-05T07:53:57.746Z,13.52
2019-04-05T07:56:28.178Z,13.54
2019-04-05T07:58:58.568Z,13.53
2019-04-05T08:01:29.145Z,13.48
2019-04-05T08:04:02.754Z,13.47
2019-04-05T08:06:36.707Z,13.53
2019-04-05T08:09:15.634Z,13.61
2019-04-05T08:11:50.008Z,13.56
2019-04-05T08:14:20.886Z,13.55
2019-04-05T08:16:53.314Z,13.64
2019-04-05T08:19:25.988Z,13.66
2019-04-05T08:21:56.388Z,13.70
2019-04-05T08:24:26.753Z,13.83
2019-04-05T08:26:59.879Z,13.92
2019-04-05T08:29:30.222Z,13.90
2019-04-05T08:32:13.600Z,13.94
2019-04-05T08:34:37.158Z,13.95
2019-04-05T08:37:07.938Z,14.01
2019-04-05T08:39:38.995Z,13.96
2019-04-05T08:42:10.829Z,13.90
2019-04-05T08:44:41.055Z,13.97
2019-04-05T08:47:10.911Z,13.99
2019-04-05T08:49:43.411Z,14.03
2019-04-05T08:52:13.240Z,14.03
2019-04-05T08:54:43.534Z,14.14
2019-04-05T08:57:13.446Z,14.23
2019-04-05T08:59:43.727Z,14.26
2019-04-05T09:02:13.573Z,14.32
2019-04-05T09:04:47.529Z,14.46
2019-04-05T09:07:22.840Z,14.54
2019-04-05T09:09:55.642Z,14.65
2019-04-05T09:12:34.753Z,14.67
2019-04-05T09:15:09.879Z,14.59
2019-04-05T09:17:42.124Z,14.79
2019-04-05T09:20:14.559Z,14.85
2019-04-05T09:22:49.314Z,14.84
2019-04-05T09:25:19.910Z,15.00
2019-04-05T09:27:52.826Z,14.88
2019-04-05T09:30:23.749Z,14.82
2019-04-05T09:32:54.440Z,14.85
2019-04-05T09:35:25.102Z,14.99
2019-04-05T09:37:55.489Z,15.06
2019-04-05T09:40:26.287Z,15.13
2019-04-05T09:42:56.690Z,15.19
2019-04-05T09:45:27.286Z,15.21
2019-04-05T09:47:57.745Z,15.29
2019-04-05T09:50:28.180Z,15.32
2019-04-05T09:52:58.523Z,15.45
2019-04-05T09:55:30.087Z,15.72
2019-04-05T09:58:33.349Z,15.81
2019-04-05T10:01:07.207Z,15.69
2019-04-05T10:03:42.584Z,15.82
2019-04-05T10:06:14.220Z,16.00
2019-04-05T10:08:45.787Z,16.24
2019-04-05T10:11:16.499Z,16.51
2019-04-05T10:13:46.888Z,16.76
2019-04-05T10:16:17.476Z,16.76
2019-04-05T10:18:47.827Z,16.62
2019-04-05T10:21:19.263Z,16.48
2019-04-05T10:23:49.606Z,16.43
2019-04-05T10:26:20.019Z,16.34
2019-04-05T10:28:50.368Z,16.52
2019-04-05T10:31:20.817Z,16.62
2019-04-05T10:33:52.132Z,16.88
2019-04-05T10:36:23.655Z,16.98
2019-04-05T10:38:54.022Z,16.86
2019-04-05T10:41:24.511Z,16.89
2019-04-05T10:43:55.103Z,17.10
2019-04-05T10:46:25.536Z,17.14
2019-04-05T10:48:58.195Z,16.89
2019-04-05T10:51:44.881Z,16.73
2019-04-05T10:54:21.950Z,16.78
2019-04-05T10:56:52.609Z,16.60
2019-04-05T10:59:23.029Z,16.79
2019-04-05T11:01:53.402Z,16.92
2019-04-05T11:04:23.933Z,17.04
2019-04-05T11:06:54.450Z,17.31
2019-04-05T11:09:25.044Z,17.29
2019-04-05T11:11:55.571Z,17.47
2019-04-05T11:14:25.936Z,17.73
2019-04-05T11:16:58.695Z,17.77
2019-04-05T11:19:30.273Z,17.76
2019-04-05T11:22:00.546Z,17.79
2019-04-05T11:24:30.935Z,17.79
2019-04-05T11:27:01.411Z,17.59
2019-04-05T11:29:33.986Z,17.54
2019-04-05T11:32:04.849Z,17.47
2019-04-05T11:34:35.201Z,17.69
2019-04-05T11:37:05.659Z,18.27
2019-04-05T11:39:38.304Z,18.45
2019-04-05T11:42:12.124Z,18.31
2019-04-05T11:44:45.288Z,17.92
2019-04-05T11:47:19.026Z,17.78
2019-04-05T11:49:51.136Z,18.06
2019-04-05T11:52:21.454Z,18.18
2019-04-05T11:54:52.599Z,18.24
2019-04-05T11:57:23.420Z,18.21
2019-04-05T11:59:55.568Z,18.34
2019-04-05T12:02:46.877Z,18.69
2019-04-05T12:05:20.369Z,18.75
2019-04-05T12:07:51.375Z,18.80
2019-04-05T12:10:22.382Z,18.91
2019-04-05T12:12:52.847Z,18.85
2019-04-05T12:15:29.087Z,18.54
2019-04-05T12:17:59.555Z,18.56
2019-04-05T12:20:32.787Z,18.82
2019-04-05T12:23:02.246Z,19.02
2019-04-05T12:25:33.749Z,19.39
2019-04-05T12:28:10.096Z,19.78
2019-04-05T12:30:38.057Z,20.12
2019-04-05T12:33:14.367Z,19.81
2019-04-05T12:35:44.781Z,19.76
2019-04-05T12:38:31.471Z,19.65
2019-04-05T12:41:04.878Z,19.68
2019-04-05T12:43:35.831Z,19.82
2019-04-05T12:46:06.655Z,19.78
2019-04-05T12:48:37.141Z,19.70
2019-04-05T12:51:07.684Z,19.18
2019-04-05T12:53:40.043Z,18.65
2019-04-05T12:56:14.833Z,18.04
2019-04-05T12:58:45.322Z,17.72
2019-04-05T13:01:15.691Z,17.37
2019-04-05T13:03:46.149Z,17.25
2019-04-05T13:06:19.824Z,17.06
2019-04-05T13:08:56.755Z,16.91
2019-04-05T13:11:29.263Z,16.90
2019-04-05T13:13:59.891Z,16.95
2019-04-05T13:16:30.302Z,17.23
2019-04-05T13:19:50.252Z,17.63
2019-04-05T13:22:22.570Z,17.90
2019-04-05T13:24:52.190Z,17.79
2019-04-05T13:27:22.532Z,17.63
2019-04-05T13:29:53.406Z,17.74
2019-04-05T13:32:24.066Z,17.99
2019-04-05T13:34:55.856Z,18.03
2019-04-05T13:37:28.530Z,18.22
2019-04-05T13:40:00.012Z,18.28
2019-04-05T13:42:31.947Z,18.38
2019-04-05T13:45:03.438Z,18.35
2019-04-05T13:47:42.061Z,18.27
2019-04-05T13:50:12.516Z,18.30
2019-04-05T13:52:42.920Z,18.04
2019-04-05T13:55:13.543Z,17.99
2019-04-05T13:57:44.071Z,17.91
2019-04-05T14:00:18.315Z,17.89
2019-04-05T14:02:50.742Z,17.87
2019-04-05T14:05:22.806Z,17.93
2019-04-05T14:08:09.144Z,18.00
2019-04-05T14:10:25.421Z,18.25
2019-04-05T14:12:55.875Z,18.27
2019-04-05T14:15:31.297Z,18.33
2019-04-05T14:18:00.935Z,18.26
2019-04-05T14:20:37.251Z,18.19
2019-04-05T14:23:08.817Z,18.01
2019-04-05T14:26:47.126Z,17.86
2019-04-05T14:29:18.878Z,17.67
2019-04-05T14:35:09.480Z,17.86
2019-04-05T14:37:46.688Z,17.82
2019-04-05T14:40:36.351Z,17.78
2019-04-05T14:43:06.980Z,17.76
2019-04-05T14:45:37.360Z,17.78
2019-04-05T14:48:14.195Z,17.71
2019-04-05T14:50:46.589Z,17.68
2019-04-05T14:53:19.197Z,17.63
2019-04-05T14:55:54.641Z,17.68
2019-04-05T14:58:25.819Z,17.92
2019-04-05T15:00:58.304Z,18.20
2019-04-05T15:03:28.828Z,18.36
2019-04-05T15:05:59.240Z,18.45
2019-04-05T15:08:29.663Z,18.22
2019-04-05T15:11:00.130Z,17.96
2019-04-05T15:13:32.441Z,17.72
2019-04-05T15:16:02.868Z,17.59
2019-04-05T15:18:33.294Z,17.57
2019-04-05T15:21:07.598Z,17.53
2019-04-05T15:23:41.264Z,17.49
2019-04-05T15:26:12.066Z,17.51
2019-04-05T15:28:42.517Z,17.55
2019-04-05T15:31:17.780Z,17.60
2019-04-05T15:33:49.034Z,17.60
2019-04-05T15:36:25.732Z,17.64
2019-04-05T15:39:03.848Z,17.73
2019-04-05T15:41:34.517Z,17.67
2019-04-05T15:44:11.060Z,17.58
2019-04-05T15:46:44.061Z,17.44
2019-04-05T15:49:14.599Z,17.39
2019-04-05T15:51:45.120Z,17.39
2019-04-05T15:54:15.945Z,17.35
2019-04-05T15:56:47.786Z,17.33
2019-04-05T15:59:21.921Z,17.28
2019-04-05T16:01:52.755Z,17.26
2019-04-05T16:04:26.471Z,17.28
2019-04-05T16:06:57.425Z,17.25
2019-04-05T16:09:27.907Z,17.25
2019-04-05T16:11:58.331Z,17.20
2019-04-05T16:14:33.906Z,17.08
2019-04-05T16:17:04.572Z,17.06
2019-04-05T16:19:35.395Z,17.11
2019-04-05T16:22:05.959Z,17.09
2019-04-05T16:24:42.729Z,17.01
2019-04-05T16:27:15.091Z,16.95
2019-04-05T16:29:48.767Z,16.90
2019-04-05T16:32:19.302Z,16.86
2019-04-05T16:34:49.891Z,16.89
2019-04-05T16:37:20.461Z,16.91
2019-04-05T16:39:53.318Z,16.89
2019-04-05T16:42:24.044Z,16.82
2019-04-05T16:44:54.848Z,16.76
2019-04-05T16:47:25.151Z,16.64
2019-04-05T16:49:55.481Z,16.59
2019-04-05T16:52:25.787Z,16.58
2019-04-05T16:55:03.524Z,16.57
2019-04-05T16:57:33.984Z,16.54
2019-04-05T17:00:05.099Z,16.46
2019-04-05T17:02:37.275Z,16.44
2019-04-05T17:05:08.230Z,16.37
2019-04-05T17:08:16.198Z,16.32
2019-04-05T17:10:51.609Z,16.30
2019-04-05T17:13:45.751Z,16.30
2019-04-05T17:16:30.392Z,16.26
2019-04-05T17:22:39.899Z,16.08
2019-04-05T17:25:26.090Z,16.07
2019-04-05T17:28:48.527Z,16.09
2019-04-05T17:31:49.302Z,16.02
2019-04-05T17:34:44.870Z,15.94
2019-04-05T17:37:20.652Z,15.87
2019-04-05T17:40:03.668Z,15.85
2019-04-05T17:42:35.023Z,15.80
2019-04-05T17:45:08.660Z,15.76
2019-04-05T17:47:45.102Z,15.73
2019-04-05T17:50:33.768Z,15.70
2019-04-05T17:53:16.148Z,15.68
2019-04-05T17:55:59.183Z,15.65
2019-04-05T17:58:32.404Z,15.61
2019-04-05T18:01:15.377Z,15.57
2019-04-05T18:03:46.326Z,15.51
2019-04-05T18:06:18.844Z,15.47
2019-04-05T18:08:52.403Z,15.44
2019-04-05T18:11:26.353Z,15.42
2019-04-05T18:13:59.396Z,15.39
2019-04-05T18:16:38.896Z,15.36
2019-04-05T18:19:14.793Z,15.37
2019-04-05T18:21:46.809Z,15.37
2019-04-05T18:24:17.337Z,15.34
2019-04-05T18:26:49.176Z,15.32
2019-04-05T18:29:22.870Z,15.29
2019-04-05T18:31:56.571Z,15.24
2019-04-05T18:34:27.221Z,15.25
2019-04-05T18:36:57.714Z,15.28
2019-04-05T18:39:43.087Z,15.23
2019-04-05T18:42:16.552Z,15.22
2019-04-05T18:44:48.991Z,15.23
2019-04-05T18:47:41.717Z,15.20
2019-04-05T18:50:14.515Z,15.15
2019-04-05T18:52:52.228Z,15.11
2019-04-05T18:55:26.102Z,15.08
2019-04-05T18:58:01.094Z,15.03
2019-04-05T19:00:31.829Z,15.04
2019-04-05T19:03:19.871Z,15.02
2019-04-05T19:05:51.888Z,14.98
2019-04-05T19:08:23.214Z,14.95
2019-04-05T19:10:57.783Z,14.97
2019-04-05T19:13:28.265Z,14.96
2019-04-05T19:16:01.494Z,14.93
2019-04-05T19:18:41.563Z,14.86
2019-04-05T19:21:09.767Z,14.78
2019-04-05T19:23:50.681Z,14.70
2019-04-05T19:26:15.418Z,14.62
2019-04-05T19:28:46.364Z,14.55
2019-04-05T19:50:27.399Z,14.12
2019-04-05T19:53:05.594Z,14.07
2019-04-05T19:55:45.689Z,13.97
2019-04-05T19:58:22.074Z,13.93
2019-04-05T20:01:21.448Z,13.89
2019-04-05T20:04:08.094Z,13.76
2019-04-05T20:07:27.006Z,13.65
2019-04-05T20:10:02.906Z,13.51
2019-04-05T20:12:43.582Z,13.45
2019-04-05T20:15:16.542Z,13.42
2019-04-05T20:17:46.787Z,13.40
2019-04-05T20:20:17.550Z,13.37
2019-04-05T20:22:51.345Z,13.31
2019-04-05T20:25:22.588Z,13.26
2019-04-05T20:27:57.288Z,13.24
2019-04-05T20:30:28.122Z,13.27
2019-04-05T20:32:58.596Z,13.28
2019-04-05T20:35:29.300Z,13.31
2019-04-05T20:37:59.639Z,13.30
2019-04-05T20:40:44.043Z,13.27
2019-04-05T20:43:15.234Z,13.23
2019-04-05T20:45:45.689Z,13.20
2019-04-05T20:48:17.157Z,13.14
2019-04-05T20:50:51.870Z,13.05
2019-04-05T20:53:25.477Z,13.00
2019-04-05T20:55:56.622Z,12.95
2019-04-05T20:58:31.235Z,12.91
2019-04-05T21:01:04.056Z,12.88
2019-04-05T21:03:35.253Z,12.78
2019-04-05T21:06:53.201Z,12.75
2019-04-05T21:09:40.913Z,12.71
2019-04-05T21:12:16.948Z,12.66
2019-04-05T21:14:49.568Z,12.64
2019-04-05T21:17:24.198Z,12.61
2019-04-05T21:20:16.148Z,12.57
2019-04-05T21:22:47.204Z,12.55
2019-04-05T21:25:17.814Z,12.49
2019-04-05T21:27:51.358Z,12.43
2019-04-05T21:30:22.264Z,12.40
2019-04-05T21:32:52.695Z,12.36
2019-04-05T21:35:35.006Z,12.33
2019-04-05T21:38:07.977Z,12.28
2019-04-05T21:40:38.675Z,12.28
2019-04-05T21:43:10.233Z,12.27
2019-04-05T21:45:42.427Z,12.27
2019-04-05T21:48:15.266Z,12.27
2019-04-05T21:50:46.407Z,12.27
2019-04-05T21:53:17.015Z,12.26
2019-04-05T21:55:47.451Z,12.30
2019-04-05T21:58:17.908Z,12.32
2019-04-05T22:00:50.531Z,12.31
2019-04-05T22:03:21.175Z,12.31
2019-04-05T22:05:51.781Z,12.34
2019-04-05T22:08:22.266Z,12.35
2019-04-05T22:10:53.098Z,12.37
2019-04-05T22:13:23.492Z,12.37
2019-04-05T22:15:53.897Z,12.38
2019-04-05T22:18:34.694Z,12.37
2019-04-05T22:21:09.539Z,12.31
2019-04-05T22:23:53.239Z,12.31
2019-04-05T22:26:24.736Z,12.32
2019-04-05T22:28:55.737Z,12.32
2019-04-05T22:31:48.542Z,12.28
2019-04-05T22:34:31.599Z,12.22
2019-04-05T22:37:08.348Z,12.22
2019-04-05T22:39:39.455Z,12.20
2019-04-05T22:42:10.004Z,12.18
2019-04-05T22:44:43.088Z,12.16
2019-04-05T22:47:15.865Z,12.14
2019-04-05T22:49:46.380Z,12.17
2019-04-05T22:52:17.364Z,12.16
2019-04-05T22:54:47.914Z,12.15
2019-04-05T22:57:18.494Z,12.19
2019-04-05T22:59:49.337Z,12.18
2019-04-05T23:02:19.762Z,12.16
2019-04-05T23:04:50.271Z,12.12
2019-04-05T23:07:22.034Z,12.12
2019-04-05T23:09:53.702Z,12.09
2019-04-05T23:12:24.168Z,12.07
2019-04-05T23:14:54.983Z,12.06
2019-04-05T23:17:25.364Z,12.04
2019-04-05T23:19:55.771Z,12.01
2019-04-05T23:22:26.231Z,11.94
2019-04-05T23:24:56.684Z,11.89
2019-04-05T23:27:28.094Z,11.87
2019-04-05T23:29:58.485Z,11.84
2019-04-05T23:32:29.332Z,11.82
2019-04-05T23:35:00.175Z,11.79
2019-04-05T23:37:30.699Z,11.75
2019-04-05T23:40:01.149Z,11.73
2019-04-05T23:42:31.571Z,11.71
2019-04-05T23:45:02.204Z,11.69
2019-04-05T23:47:32.608Z,11.69
2019-04-05T23:50:05.012Z,11.70
2019-04-05T23:52:35.652Z,11.77
2019-04-05T23:55:06.550Z,11.80
2019-04-05T23:57:37.337Z,11.77
